Trommald, Minnesota
Current Conditions -  °F | °C
As of 1:34 AM on Sunday 23 Nov 2014 (Local Time) from KAIT Reporting Station
Haze Haze  
Wind Chill: 37°   Ceiling: 200
Heat Index: 37°   Visibility: 0.5mi
Dew Point: 34°   Wind: 3mph
Humidity: 87%   Direction: 140°SE
Pressure: 29.4"   Gusts: NA
Location:  46.6149°N, 93.9625°W
Report Text: KAIT 230734Z AUTO 14003KT 1/2SM HZ OVC002 03/01 A2940 RMK AO2
Loading
Personal Weather Stations






























Interactive Weather Map New forecast layout! Learn more

10-Day Weather Forecast

Advertisements
Track Severe Weather on mobile